Miami, Florida
Current Conditions -  °F | °C
As of 12:53 AM on Friday 31 Oct 2014 (Local Time) from KMIA Reporting Station
Scattered Clouds Scattered Clouds  
Wind Chill: 75°   Ceiling: Unl
Heat Index: 75°   Visibility: 10mi
Dew Point: 68°   Wind: 6mph
Humidity: 79%   Direction: 250°WSW
Pressure: 29.89"   Gusts: NA
Location:  25.77°N, 80.19°W
Report Text: KMIA 310453Z 25005KT 10SM FEW055 SCT075 24/20 A2989 RMK AO2 SLP121 T02390200 403000211
Loading
Personal Weather Stations






























Interactive Weather Map
Tropical Storm Tracking
New forecast layout! Learn more

10-Day Weather Forecast

Advertisements
Track Severe Weather on mobile